createdAt,value
2019-04-22T00:01:30.785Z,12.60
2019-04-22T00:04:09.930Z,9.93
2019-04-22T00:07:03.278Z,12.83
2019-04-22T00:09:49.937Z,14.60
2019-04-22T00:12:19.547Z,13.20
2019-04-22T00:14:55.441Z,11.10
2019-04-22T00:17:45.475Z,13.10
2019-04-22T00:20:14.338Z,11.33
2019-04-22T00:22:46.480Z,11.67
2019-04-22T00:25:45.913Z,12.57
2019-04-22T00:28:08.484Z,10.73
2019-04-22T00:30:40.678Z,10.57
2019-04-22T00:33:24.518Z,12.40
2019-04-22T00:36:02.027Z,14.60
2019-04-22T00:38:38.679Z,9.07
2019-04-22T00:41:25.426Z,12.77
2019-04-22T00:43:58.140Z,11.10
2019-04-22T00:46:32.830Z,13.63
2019-04-22T00:49:52.470Z,12.93
2019-04-22T00:52:01.089Z,12.33
2019-04-22T00:54:21.477Z,11.27
2019-04-22T00:57:04.142Z,12.97
2019-04-22T00:59:37.522Z,11.17
2019-04-22T01:02:20.355Z,12.53
2019-04-22T01:04:55.981Z,12.17
2019-04-22T01:07:30.857Z,11.30
2019-04-22T01:10:12.869Z,13.87
2019-04-22T01:12:44.261Z,15.83
2019-04-22T01:15:28.927Z,14.93
2019-04-22T01:18:08.279Z,12.33
2019-04-22T01:21:05.842Z,12.53
2019-04-22T01:23:12.961Z,11.17
2019-04-22T01:25:46.125Z,13.23
2019-04-22T01:28:23.969Z,13.30
2019-04-22T01:30:53.321Z,11.70
2019-04-22T01:33:32.447Z,11.57
2019-04-22T01:36:22.820Z,10.97
2019-04-22T01:39:02.406Z,11.27
2019-04-22T01:41:51.705Z,12.50
2019-04-22T01:46:58.457Z,11.33
2019-04-22T01:49:38.393Z,11.60
2019-04-22T01:55:10.611Z,14.93
2019-04-22T01:57:29.723Z,11.53
2019-04-22T01:59:57.626Z,11.60
2019-04-22T02:02:42.254Z,13.90
2019-04-22T02:07:56.157Z,12.00
2019-04-22T02:10:39.837Z,12.57
2019-04-22T02:13:15.855Z,11.37
2019-04-22T02:15:53.814Z,14.57
2019-04-22T02:18:31.812Z,14.53
2019-04-22T02:21:09.572Z,12.37
2019-04-22T02:26:25.767Z,14.23
2019-04-22T02:29:00.080Z,13.60
2019-04-22T02:31:59.545Z,11.03
2019-04-22T02:39:38.413Z,11.73
2019-04-22T02:42:13.189Z,14.30
2019-04-22T02:44:47.116Z,12.50
2019-04-22T02:47:39.587Z,12.27
2019-04-22T02:52:37.996Z,12.73
2019-04-22T02:55:15.417Z,14.10
2019-04-22T02:58:22.390Z,13.73
2019-04-22T03:00:37.840Z,12.07
2019-04-22T03:05:59.528Z,12.03
2019-04-22T03:08:30.343Z,12.47
2019-04-22T03:13:47.316Z,12.20
2019-04-22T03:16:27.071Z,11.33
2019-04-22T03:21:33.974Z,11.40
2019-04-22T03:24:25.816Z,14.13
2019-04-22T03:26:49.004Z,13.47
2019-04-22T03:35:37.200Z,14.17
2019-04-22T03:37:56.287Z,11.63
2019-04-22T03:43:27.397Z,14.67
2019-04-22T03:45:51.281Z,13.47
2019-04-22T03:48:37.912Z,14.27
2019-04-22T03:51:22.321Z,15.57
2019-04-22T03:53:48.210Z,16.00
2019-04-22T03:57:02.349Z,14.43
2019-04-22T03:59:09.875Z,12.53
2019-04-22T04:04:36.069Z,11.73
2019-04-22T04:07:11.188Z,13.17
2019-04-22T04:09:33.920Z,14.80
2019-04-22T04:14:53.987Z,15.30
2019-04-22T04:22:53.760Z,14.33
2019-04-22T04:33:23.016Z,16.30
2019-04-22T04:36:02.979Z,14.37
2019-04-22T04:38:23.881Z,16.60
2019-04-22T04:41:06.920Z,13.43
2019-04-22T04:43:46.606Z,13.80
2019-04-22T04:46:24.284Z,15.07
2019-04-22T04:51:37.649Z,16.33
2019-04-22T04:59:47.404Z,17.50
2019-04-22T05:02:06.517Z,15.37
2019-04-22T05:10:04.102Z,15.83
2019-04-22T05:12:45.870Z,14.90
2019-04-22T05:15:13.342Z,15.37
2019-04-22T05:17:54.140Z,12.47
2019-04-22T05:23:01.153Z,12.60
2019-04-22T05:25:55.062Z,15.23
2019-04-22T05:28:12.198Z,15.93
2019-04-22T05:30:47.661Z,13.13
2019-04-22T05:33:32.293Z,14.07
2019-04-22T05:36:07.685Z,12.90
2019-04-22T05:38:46.306Z,12.70
2019-04-22T05:41:26.950Z,13.97
2019-04-22T05:43:58.542Z,12.67
2019-04-22T05:46:34.424Z,12.83
2019-04-22T05:49:23.522Z,11.50
2019-04-22T05:51:48.539Z,12.13
2019-04-22T05:54:27.646Z,13.17
2019-04-22T05:57:00.583Z,15.03
2019-04-22T05:59:45.718Z,12.17
2019-04-22T06:05:01.548Z,16.27
2019-04-22T06:07:31.343Z,13.03
2019-04-22T06:10:22.902Z,13.17
2019-04-22T06:12:45.788Z,13.90
2019-04-22T06:15:26.271Z,15.10
2019-04-22T06:18:09.576Z,13.03
2019-04-22T06:20:45.556Z,12.57
2019-04-22T06:23:26.125Z,13.00
2019-04-22T06:26:09.947Z,13.03
2019-04-22T06:31:18.697Z,10.43
2019-04-22T06:33:54.769Z,10.43
2019-04-22T06:36:30.898Z,9.77
2019-04-22T06:39:13.288Z,10.97
2019-04-22T06:47:00.647Z,10.13
2019-04-22T06:49:35.185Z,11.30
2019-04-22T06:52:13.937Z,13.80
2019-04-22T06:57:28.007Z,9.97
2019-04-22T07:00:05.644Z,10.97
2019-04-22T07:02:59.057Z,10.00
2019-04-22T07:05:25.216Z,12.23
2019-04-22T07:08:04.389Z,8.73
2019-04-22T07:13:17.979Z,9.33
2019-04-22T07:18:31.184Z,8.03
2019-04-22T07:23:51.254Z,8.07
2019-04-22T07:26:19.969Z,11.03
2019-04-22T07:28:59.564Z,9.90
2019-04-22T07:31:37.225Z,8.17
2019-04-22T07:34:25.300Z,7.60
2019-04-22T07:39:30.784Z,10.40
2019-04-22T07:42:06.620Z,8.53
2019-04-22T07:44:45.038Z,10.63
2019-04-22T07:47:27.571Z,8.07
2019-04-22T07:49:59.212Z,6.97
2019-04-22T07:52:43.529Z,7.23
2019-04-22T07:55:11.886Z,9.53
2019-04-22T07:57:58.310Z,6.30
2019-04-22T08:00:34.187Z,6.70
2019-04-22T08:03:24.513Z,6.70
2019-04-22T08:05:58.847Z,11.53
2019-04-22T08:08:34.005Z,6.33
2019-04-22T08:11:08.131Z,7.27
2019-04-22T08:13:40.631Z,8.73
2019-04-22T08:16:16.352Z,10.20
2019-04-22T08:19:04.125Z,5.70
2019-04-22T08:21:38.411Z,5.33
2019-04-22T08:24:30.570Z,6.00
2019-04-22T08:27:09.142Z,6.03
2019-04-22T08:32:05.028Z,7.07
2019-04-22T08:34:42.761Z,7.67
2019-04-22T08:40:01.637Z,4.83
2019-04-22T08:42:43.213Z,5.63
2019-04-22T08:47:49.834Z,5.03
2019-04-22T08:50:29.834Z,5.40
2019-04-22T08:53:10.342Z,5.43
2019-04-22T08:55:52.030Z,6.03
2019-04-22T09:01:04.448Z,7.50
2019-04-22T09:03:36.101Z,7.17
2019-04-22T09:06:22.446Z,6.10
2019-04-22T09:08:55.574Z,6.17
2019-04-22T09:11:38.721Z,6.97
2019-04-22T09:14:11.298Z,5.97
2019-04-22T09:16:55.865Z,6.70
2019-04-22T09:19:19.714Z,11.37
2019-04-22T09:22:00.426Z,6.67
2019-04-22T09:24:36.163Z,8.63
2019-04-22T09:27:22.514Z,8.37
2019-04-22T09:29:55.431Z,8.47
2019-04-22T09:32:36.324Z,8.87
2019-04-22T09:35:02.781Z,7.13
2019-04-22T09:37:49.924Z,6.93
2019-04-22T09:40:33.104Z,5.53
2019-04-22T09:43:04.697Z,7.00
2019-04-22T09:45:43.648Z,8.53
2019-04-22T09:48:23.413Z,11.73
2019-04-22T09:51:11.842Z,10.37
2019-04-22T09:53:39.256Z,8.53
2019-04-22T09:56:17.567Z,7.60
2019-04-22T09:58:50.482Z,7.50
2019-04-22T10:04:18.594Z,6.93
2019-04-22T10:06:54.693Z,8.03
2019-04-22T10:09:42.921Z,8.60
2019-04-22T10:11:55.326Z,6.93
2019-04-22T10:14:39.973Z,11.37
2019-04-22T10:17:15.503Z,8.43
2019-04-22T10:19:59.618Z,6.50
2019-04-22T10:22:45.774Z,6.13
2019-04-22T10:25:26.383Z,9.07
2019-04-22T10:28:12.471Z,8.07
2019-04-22T10:30:47.236Z,8.27
2019-04-22T10:33:15.000Z,7.13
2019-04-22T10:35:34.607Z,8.60
2019-04-22T10:38:12.685Z,5.73
2019-04-22T10:40:50.585Z,6.87
2019-04-22T10:43:29.388Z,7.10
2019-04-22T10:46:06.220Z,7.00
2019-04-22T10:48:44.264Z,5.93
2019-04-22T10:51:22.332Z,7.60
2019-04-22T10:53:59.691Z,7.93
2019-04-22T10:56:43.109Z,5.27
2019-04-22T10:59:56.806Z,5.17
2019-04-22T11:03:22.508Z,4.23
2019-04-22T11:06:55.325Z,6.03
2019-04-22T11:13:35.979Z,4.50
2019-04-22T11:16:43.823Z,6.57
2019-04-22T11:19:37.719Z,6.30
2019-04-22T11:22:31.644Z,5.60
2019-04-22T11:25:21.488Z,6.17
2019-04-22T11:28:05.614Z,5.67
2019-04-22T11:30:48.230Z,4.63
2019-04-22T11:33:24.786Z,5.70
2019-04-22T11:36:03.856Z,5.97
2019-04-22T11:38:48.708Z,6.00
2019-04-22T11:41:19.353Z,5.53
2019-04-22T11:44:03.110Z,5.27
2019-04-22T11:46:39.548Z,5.03
2019-04-22T11:49:18.193Z,5.03
2019-04-22T11:51:56.265Z,5.70
2019-04-22T11:54:41.267Z,8.93
2019-04-22T11:57:35.049Z,4.83
2019-04-22T12:00:45.109Z,8.43
2019-04-22T12:03:41.933Z,6.50
2019-04-22T12:06:31.875Z,6.17
2019-04-22T12:09:23.825Z,8.57
2019-04-22T12:12:01.438Z,4.60
2019-04-22T12:14:40.436Z,6.73
2019-04-22T12:17:24.169Z,7.30
2019-04-22T12:20:08.597Z,10.27
2019-04-22T12:22:45.043Z,8.20
2019-04-22T12:25:36.102Z,3.80
2019-04-22T12:28:05.564Z,5.83
2019-04-22T12:30:43.523Z,8.13
2019-04-22T12:33:21.220Z,8.00
2019-04-22T12:35:58.110Z,6.87
2019-04-22T12:38:35.716Z,11.57
2019-04-22T12:41:14.118Z,12.47
2019-04-22T12:43:51.402Z,12.33
2019-04-22T12:46:28.272Z,8.20
2019-04-22T12:49:05.600Z,5.47
2019-04-22T12:51:43.105Z,3.97
2019-04-22T12:54:21.448Z,3.63
2019-04-22T12:56:59.613Z,3.77
2019-04-22T12:59:35.634Z,4.40
2019-04-22T13:02:13.433Z,6.43
2019-04-22T13:04:52.031Z,7.17
2019-04-22T13:07:29.435Z,4.63
2019-04-22T13:10:06.098Z,3.73
2019-04-22T13:12:44.494Z,4.33
2019-04-22T13:15:22.353Z,7.80
2019-04-22T13:18:05.963Z,3.17
2019-04-22T13:20:36.542Z,4.00
2019-04-22T13:23:13.850Z,3.53
2019-04-22T13:25:50.962Z,2.57
2019-04-22T13:28:29.269Z,8.13
2019-04-22T13:31:07.600Z,8.97
2019-04-22T13:33:43.526Z,7.37
2019-04-22T13:36:23.743Z,6.20
2019-04-22T13:38:58.889Z,6.43
2019-04-22T13:41:44.012Z,5.50
2019-04-22T13:44:14.666Z,2.60
2019-04-22T13:47:08.186Z,5.80
2019-04-22T13:50:08.245Z,4.37
2019-04-22T13:55:20.662Z,6.93
2019-04-22T13:57:41.413Z,2.25
2019-04-22T14:00:00.681Z,3.50
2019-04-22T14:02:56.038Z,4.90
2019-04-22T14:05:34.923Z,3.67
2019-04-22T14:08:12.632Z,3.43
2019-04-22T14:10:50.188Z,5.50
2019-04-22T14:13:26.220Z,4.23
2019-04-22T14:16:04.757Z,3.27
2019-04-22T14:18:44.617Z,4.80
2019-04-22T14:21:20.857Z,4.73
2019-04-22T14:23:58.407Z,3.50
2019-04-22T14:26:44.131Z,5.90
2019-04-22T14:29:11.799Z,3.80
2019-04-22T14:32:01.101Z,1.90
2019-04-22T14:34:28.382Z,3.22
2019-04-22T14:37:05.711Z,5.20
2019-04-22T14:39:42.212Z,2.60
2019-04-22T14:42:40.120Z,4.47
2019-04-22T14:45:23.734Z,6.87
2019-04-22T14:48:01.363Z,2.23
2019-04-22T14:50:38.831Z,4.47
2019-04-22T14:53:08.110Z,6.83
2019-04-22T14:55:30.664Z,3.23
2019-04-22T14:58:04.944Z,6.45
2019-04-22T15:00:42.494Z,4.17
2019-04-22T15:03:19.918Z,4.77
2019-04-22T15:05:57.950Z,2.63
2019-04-22T15:08:35.157Z,6.33
2019-04-22T15:11:13.108Z,4.50
2019-04-22T15:13:51.537Z,6.27
2019-04-22T15:16:42.567Z,3.67
2019-04-22T15:19:54.202Z,5.67
2019-04-22T15:22:32.703Z,5.73
2019-04-22T15:25:10.429Z,8.33
2019-04-22T15:27:47.779Z,15.40
2019-04-22T15:30:25.493Z,8.30
2019-04-22T15:33:03.312Z,8.50
2019-04-22T15:35:41.078Z,4.90
2019-04-22T15:38:18.330Z,8.00
2019-04-22T15:40:54.810Z,4.07
2019-04-22T15:43:35.177Z,7.87
2019-04-22T15:46:09.981Z,9.03
2019-04-22T15:48:48.448Z,4.23
2019-04-22T15:51:25.084Z,7.47
2019-04-22T15:54:03.571Z,7.57
2019-04-22T15:56:41.164Z,5.70
2019-04-22T15:59:38.966Z,6.15
2019-04-22T16:02:00.062Z,6.53
2019-04-22T16:04:34.592Z,5.20
2019-04-22T16:07:10.933Z,3.63
2019-04-22T16:09:49.799Z,5.17
2019-04-22T16:12:30.775Z,8.63
2019-04-22T16:15:05.154Z,6.00
2019-04-22T16:17:40.834Z,4.23
2019-04-22T16:20:19.261Z,4.57
2019-04-22T16:23:24.472Z,2.90
2019-04-22T16:26:07.430Z,2.90
2019-04-22T16:28:45.159Z,4.37
2019-04-22T16:31:21.967Z,5.03
2019-04-22T16:34:00.495Z,4.27
2019-04-22T16:36:36.889Z,4.47
2019-04-22T16:39:15.277Z,9.53
2019-04-22T16:41:52.815Z,4.17
2019-04-22T16:44:30.361Z,5.37
2019-04-22T16:47:08.066Z,3.00
2019-04-22T16:49:45.692Z,1.83
2019-04-22T16:52:23.835Z,5.47
2019-04-22T16:55:00.979Z,7.73
2019-04-22T16:57:39.723Z,6.00
2019-04-22T17:00:16.619Z,5.13
2019-04-22T17:03:18.832Z,4.53
2019-04-22T17:06:19.433Z,2.50
2019-04-22T17:08:57.106Z,2.67
2019-04-22T17:11:34.012Z,3.50
2019-04-22T17:14:11.382Z,5.40
2019-04-22T17:16:48.685Z,4.20
2019-04-22T17:19:29.167Z,3.43
2019-04-22T17:22:07.771Z,4.10
2019-04-22T17:24:43.880Z,3.43
2019-04-22T17:27:22.355Z,3.13
2019-04-22T17:29:58.988Z,4.60
2019-04-22T17:32:37.790Z,4.07
2019-04-22T17:35:15.901Z,3.07
2019-04-22T17:38:03.046Z,3.40
2019-04-22T17:40:49.464Z,5.13
2019-04-22T17:43:42.066Z,2.87
2019-04-22T17:46:24.815Z,4.83
2019-04-22T17:49:15.399Z,3.70
2019-04-22T17:52:11.086Z,6.77
2019-04-22T17:54:50.463Z,6.33
2019-04-22T17:57:30.908Z,4.27
2019-04-22T18:00:06.165Z,2.77
2019-04-22T18:02:42.175Z,3.27
2019-04-22T18:05:05.903Z,7.20
2019-04-22T18:08:02.645Z,8.47
2019-04-22T18:10:35.654Z,6.13
2019-04-22T18:13:20.457Z,9.13
2019-04-22T18:15:53.021Z,7.10
2019-04-22T18:18:33.665Z,6.73
2019-04-22T18:21:05.059Z,9.07
2019-04-22T18:23:31.021Z,7.33
2019-04-22T18:26:20.466Z,7.73
2019-04-22T18:29:02.713Z,7.17
2019-04-22T18:31:33.037Z,5.83
2019-04-22T18:34:09.808Z,6.57
2019-04-22T18:36:52.120Z,8.90
2019-04-22T18:39:37.066Z,7.27
2019-04-22T18:42:07.527Z,6.03
2019-04-22T18:44:51.667Z,9.20
2019-04-22T18:47:18.798Z,11.53
2019-04-22T18:49:59.474Z,10.27
2019-04-22T18:53:14.291Z,8.53
2019-04-22T18:55:57.270Z,9.63
2019-04-22T18:58:30.490Z,13.13
2019-04-22T19:00:55.162Z,9.60
2019-04-22T19:03:44.698Z,8.50
2019-04-22T19:06:42.028Z,8.87
2019-04-22T19:09:10.589Z,8.30
2019-04-22T19:12:02.706Z,6.83
2019-04-22T19:14:24.281Z,11.17
2019-04-22T19:17:11.931Z,10.13
2019-04-22T19:19:49.795Z,13.90
2019-04-22T19:22:16.280Z,9.10
2019-04-22T19:24:47.946Z,7.60
2019-04-22T19:27:34.409Z,6.90
2019-04-22T19:30:14.245Z,7.40
2019-04-22T19:32:51.727Z,5.90
2019-04-22T19:35:22.527Z,8.87
2019-04-22T19:37:58.835Z,6.70
2019-04-22T19:40:50.574Z,6.80
2019-04-22T19:43:22.678Z,6.73
2019-04-22T19:45:55.423Z,12.90
2019-04-22T19:48:39.287Z,7.57
2019-04-22T19:51:15.866Z,7.27
2019-04-22T19:53:51.228Z,8.10
2019-04-22T19:56:21.098Z,9.43
2019-04-22T19:59:02.094Z,8.90
2019-04-22T20:02:01.100Z,15.73
2019-04-22T20:05:12.519Z,12.20
2019-04-22T20:07:41.658Z,12.80
2019-04-22T20:10:25.426Z,8.20
2019-04-22T20:12:57.104Z,8.40
2019-04-22T20:15:33.424Z,9.80
2019-04-22T20:18:31.719Z,9.57
2019-04-22T20:20:58.489Z,8.27
2019-04-22T20:23:25.668Z,8.50
2019-04-22T20:26:03.526Z,9.87
2019-04-22T20:28:49.296Z,11.90
2019-04-22T20:31:25.413Z,9.40
2019-04-22T20:34:11.822Z,8.20
2019-04-22T20:37:00.691Z,10.97
2019-04-22T20:39:10.767Z,13.57
2019-04-22T20:42:03.192Z,12.50
2019-04-22T20:44:37.747Z,9.30
2019-04-22T20:47:09.356Z,10.30
2019-04-22T20:49:47.505Z,11.50
2019-04-22T20:52:34.516Z,12.33
2019-04-22T20:55:02.709Z,13.17
2019-04-22T20:57:49.773Z,11.20
2019-04-22T21:00:18.742Z,12.37
2019-04-22T21:02:46.614Z,10.40
2019-04-22T21:05:26.554Z,10.07
2019-04-22T21:08:11.507Z,11.13
2019-04-22T21:10:44.556Z,11.13
2019-04-22T21:13:20.734Z,12.13
2019-04-22T21:16:10.571Z,12.83
2019-04-22T21:18:36.151Z,11.10
2019-04-22T21:21:20.391Z,12.80
2019-04-22T21:23:51.377Z,11.77
2019-04-22T21:26:36.552Z,14.33
2019-04-22T21:29:11.870Z,14.47
2019-04-22T21:31:51.275Z,14.77
2019-04-22T21:34:26.369Z,17.80
2019-04-22T21:37:07.628Z,18.37
2019-04-22T21:39:38.010Z,14.83
2019-04-22T21:42:24.669Z,16.03
2019-04-22T21:44:51.153Z,17.97
2019-04-22T21:47:45.927Z,15.37
2019-04-22T21:50:32.298Z,17.00
2019-04-22T21:52:59.519Z,16.57
2019-04-22T21:55:29.741Z,18.30
2019-04-22T21:58:21.370Z,17.70
2019-04-22T22:01:20.211Z,20.60
2019-04-22T22:03:50.336Z,18.63
2019-04-22T22:06:21.854Z,21.20
2019-04-22T22:09:07.195Z,20.03
2019-04-22T22:11:40.059Z,19.33
2019-04-22T22:14:16.961Z,17.10
2019-04-22T22:16:50.476Z,22.13
2019-04-22T22:19:34.490Z,18.77
2019-04-22T22:22:29.825Z,21.47
2019-04-22T22:24:49.837Z,19.27
2019-04-22T22:27:28.109Z,17.40
2019-04-22T22:30:21.837Z,20.40
2019-04-22T22:32:43.464Z,21.10
2019-04-22T22:35:20.976Z,19.40
2019-04-22T22:38:01.167Z,21.23
2019-04-22T22:40:19.907Z,19.03
2019-04-22T22:42:53.603Z,19.80
2019-04-22T22:45:38.208Z,22.47
2019-04-22T22:48:34.879Z,19.83
2019-04-22T22:51:06.873Z,20.50
2019-04-22T22:53:46.271Z,24.13
2019-04-22T22:56:25.219Z,24.17
2019-04-22T22:59:01.840Z,23.17
2019-04-22T23:01:38.002Z,19.63
2019-04-22T23:04:16.507Z,19.97
2019-04-22T23:07:11.203Z,22.37
2019-04-22T23:09:28.880Z,22.07
2019-04-22T23:14:46.597Z,21.53
2019-04-22T23:17:07.365Z,22.10
2019-04-22T23:19:41.910Z,19.50
2019-04-22T23:22:25.216Z,20.23
2019-04-22T23:25:17.281Z,21.60
2019-04-22T23:27:52.608Z,17.60
2019-04-22T23:30:45.750Z,19.63
2019-04-22T23:33:36.368Z,23.57
2019-04-22T23:36:19.415Z,22.00
2019-04-22T23:39:09.705Z,21.10
2019-04-22T23:41:58.684Z,21.50
2019-04-22T23:44:24.013Z,21.40
2019-04-22T23:47:18.561Z,22.20
2019-04-22T23:50:01.100Z,21.43
2019-04-22T23:52:58.427Z,23.83
2019-04-22T23:55:41.401Z,24.13
2019-04-22T23:58:27.582Z,21.00
